Time;durP1;ratioP1;P1;durP2;ratioP2;P2;SDS_P1;SDS_P2;PMS_P1;PMS_P2;Temp;Humidity;BMP_temperature;BMP_pressure;BME280_temperature;BME280_humidity;BME280_pressure;Samples;Min_cycle;Max_cycle;Signal;HPM_P1;HPM_P2
2024/01/06 00:00:30;;;;;;;2.90;2.50;;;21.40;57.60;;;;;;5144003;27;20257;-69
2024/01/06 00:02:56;;;;;;;2.53;2.20;;;21.40;57.60;;;;;;5156908;27;20179;-68
2024/01/06 00:05:21;;;;;;;3.00;2.63;;;21.40;57.70;;;;;;5156439;27;20646;-68
2024/01/06 00:07:47;;;;;;;3.20;2.63;;;21.40;57.70;;;;;;5156439;27;20233;-68
2024/01/06 00:10:13;;;;;;;3.40;2.40;;;21.40;57.70;;;;;;5156593;27;20172;-69
2024/01/06 00:12:38;;;;;;;2.87;2.27;;;21.40;57.70;;;;;;5156577;27;20172;-69
2024/01/06 00:15:04;;;;;;;3.13;2.27;;;21.40;57.70;;;;;;5156107;27;20214;-69
2024/01/06 00:17:30;;;;;;;3.57;2.70;;;21.40;57.70;;;;;;5155839;27;20211;-68
2024/01/06 00:19:56;;;;;;;3.83;2.43;;;21.40;57.70;;;;;;5136837;27;20489;-69
2024/01/06 00:22:21;;;;;;;3.30;2.60;;;21.40;57.70;;;;;;5155907;27;20160;-69
2024/01/06 00:24:48;;;;;;;2.40;2.20;;;21.40;57.70;;;;;;5156359;27;20232;-69
2024/01/06 00:27:15;;;;;;;3.00;2.47;;;21.40;57.70;;;;;;5137599;27;20539;-69
2024/01/06 00:29:40;;;;;;;3.90;2.40;;;21.40;57.70;;;;;;5156007;27;20439;-69
2024/01/06 00:32:06;;;;;;;3.07;2.47;;;21.40;57.70;;;;;;5152415;27;20418;-69
2024/01/06 00:34:31;;;;;;;3.23;2.70;;;21.40;57.70;;;;;;5153381;27;20176;-69
2024/01/06 00:36:57;;;;;;;2.80;2.30;;;21.40;57.70;;;;;;5155673;27;20164;-69
2024/01/06 00:39:23;;;;;;;2.50;2.03;;;21.40;57.70;;;;;;5155841;27;20192;-68
2024/01/06 00:41:48;;;;;;;3.03;2.73;;;21.40;57.70;;;;;;5137221;27;20200;-68
2024/01/06 00:44:14;;;;;;;2.83;2.40;;;21.30;57.70;;;;;;5155488;27;20217;-69
2024/01/06 00:46:39;;;;;;;2.40;2.20;;;21.30;57.70;;;;;;5155670;27;20197;-68
2024/01/06 00:49:05;;;;;;;2.80;1.97;;;21.30;57.70;;;;;;5155692;27;20228;-69
2024/01/06 00:51:31;;;;;;;3.80;2.87;;;21.30;57.70;;;;;;5155040;27;20240;-68
2024/01/06 00:53:56;;;;;;;3.40;2.30;;;21.30;57.70;;;;;;5141155;27;20654;-69
2024/01/06 00:56:22;;;;;;;2.47;2.17;;;21.30;57.70;;;;;;5134928;27;20183;-69
2024/01/06 00:58:48;;;;;;;3.13;2.47;;;21.30;57.70;;;;;;5134655;27;20685;-66
2024/01/06 01:01:13;;;;;;;2.73;2.23;;;21.30;57.70;;;;;;5135025;27;20243;-66
2024/01/06 01:03:50;;;;;;;3.30;2.70;;;21.30;57.80;;;;;;5127081;27;20168;-68
2024/01/06 01:06:16;;;;;;;2.67;2.13;;;21.30;57.70;;;;;;5153041;27;20667;-69
2024/01/06 01:08:41;;;;;;;2.73;2.00;;;21.30;57.80;;;;;;5155326;27;20420;-69
2024/01/06 01:11:07;;;;;;;2.70;2.33;;;21.30;57.80;;;;;;5155271;27;20172;-67
2024/01/06 01:13:33;;;;;;;3.20;2.83;;;21.30;57.70;;;;;;5155187;27;20247;-69
2024/01/06 01:15:58;;;;;;;3.10;2.30;;;21.30;57.70;;;;;;5154959;27;20560;-68
2024/01/06 01:18:24;;;;;;;3.20;2.40;;;21.30;57.80;;;;;;5136586;27;20196;-69
2024/01/06 01:20:49;;;;;;;3.10;2.57;;;21.30;57.80;;;;;;5155185;27;20745;-69
2024/01/06 01:23:15;;;;;;;2.23;1.93;;;21.30;57.80;;;;;;5154269;27;20172;-69
2024/01/06 01:25:40;;;;;;;3.13;2.30;;;21.30;57.80;;;;;;5154799;27;20164;-69
2024/01/06 01:28:06;;;;;;;2.97;2.40;;;21.30;57.80;;;;;;5145464;27;20304;-69
2024/01/06 01:30:32;;;;;;;3.10;2.23;;;21.30;57.80;;;;;;5134193;27;20183;-69
2024/01/06 01:32:58;;;;;;;3.33;2.53;;;21.30;57.80;;;;;;5133745;27;20168;-69
2024/01/06 01:35:24;;;;;;;4.10;3.13;;;21.30;57.80;;;;;;5134191;27;20168;-69
2024/01/06 01:37:49;;;;;;;3.40;3.00;;;21.30;57.80;;;;;;5133833;27;20469;-69
2024/01/06 01:40:15;;;;;;;2.80;2.27;;;21.30;57.80;;;;;;5133925;27;20485;-69
2024/01/06 01:42:42;;;;;;;3.10;2.50;;;21.20;57.70;;;;;;5133943;27;20175;-69
2024/01/06 01:45:08;;;;;;;3.00;2.70;;;21.30;57.80;;;;;;5149130;27;20176;-69
2024/01/06 01:47:34;;;;;;;3.13;2.47;;;21.30;57.90;;;;;;5136137;27;20524;-68
2024/01/06 01:50:00;;;;;;;2.20;1.90;;;21.30;57.80;;;;;;5154596;27;20199;-68
2024/01/06 01:52:27;;;;;;;2.40;2.20;;;21.20;57.80;;;;;;5154408;27;20550;-69
2024/01/06 01:54:52;;;;;;;2.90;2.50;;;21.20;57.70;;;;;;5154187;27;20528;-69
2024/01/06 01:57:20;;;;;;;2.90;2.60;;;21.20;58.30;;;;;;5154153;27;20849;-68
2024/01/06 01:59:47;;;;;;;2.77;2.50;;;21.20;57.70;;;;;;5154389;27;20526;-69
2024/01/06 02:02:13;;;;;;;2.47;2.03;;;21.20;58.30;;;;;;5154526;27;20409;-69
2024/01/06 02:04:39;;;;;;;2.97;2.33;;;21.20;57.70;;;;;;5153839;27;20911;-69
2024/01/06 02:07:05;;;;;;;3.03;2.17;;;21.20;57.70;;;;;;5154170;27;20433;-69
2024/01/06 02:09:30;;;;;;;3.23;2.20;;;21.20;57.80;;;;;;5154172;27;20180;-69
2024/01/06 02:11:59;;;;;;;3.17;2.20;;;21.20;57.70;;;;;;5153762;27;20666;-68
2024/01/06 02:14:24;;;;;;;3.70;2.70;;;21.20;57.70;;;;;;5154044;27;20172;-68
2024/01/06 02:16:50;;;;;;;3.10;2.50;;;21.20;57.70;;;;;;5154172;27;20576;-69
2024/01/06 02:19:17;;;;;;;2.73;2.17;;;21.20;57.80;;;;;;5153874;27;20613;-69
2024/01/06 02:21:49;;;;;;;2.30;2.07;;;21.20;57.80;;;;;;5154261;27;20720;-69
2024/01/06 02:24:15;;;;;;;2.67;2.20;;;21.20;57.80;;;;;;5151574;27;20397;-68
2024/01/06 02:26:41;;;;;;;2.90;2.60;;;21.20;57.80;;;;;;5154072;27;20408;-68
2024/01/06 02:29:06;;;;;;;2.70;1.97;;;21.20;57.80;;;;;;5153503;27;20286;-69
2024/01/06 02:31:32;;;;;;;3.33;2.10;;;21.20;57.70;;;;;;5154007;27;20208;-69
2024/01/06 02:33:57;;;;;;;3.30;2.70;;;21.20;57.80;;;;;;5138082;27;20214;-67
2024/01/06 02:36:23;;;;;;;3.23;2.50;;;21.10;57.70;;;;;;5133046;27;20179;-69
2024/01/06 02:38:48;;;;;;;2.67;2.10;;;21.20;57.80;;;;;;5132955;27;20204;-69
2024/01/06 02:41:14;;;;;;;2.30;2.10;;;21.20;57.80;;;;;;5133118;27;20204;-68
2024/01/06 02:43:40;;;;;;;2.30;2.10;;;21.20;57.70;;;;;;5132373;27;20184;-68
2024/01/06 02:46:07;;;;;;;2.57;2.30;;;21.10;57.70;;;;;;5133036;27;20259;-69
2024/01/06 02:48:32;;;;;;;2.33;1.97;;;21.10;57.70;;;;;;5132726;27;20184;-69
2024/01/06 02:50:58;;;;;;;3.07;2.10;;;21.20;57.80;;;;;;5133097;28;20479;-68
2024/01/06 02:53:23;;;;;;;3.53;2.47;;;21.10;57.70;;;;;;5132555;27;20647;-68
2024/01/06 02:55:49;;;;;;;2.93;2.47;;;21.10;57.70;;;;;;5132871;28;20186;-69
2024/01/06 02:58:14;;;;;;;2.50;2.23;;;21.10;57.70;;;;;;5132722;28;20192;-68
2024/01/06 03:00:40;;;;;;;3.57;2.37;;;21.10;57.70;;;;;;5132476;28;20290;-69
2024/01/06 03:03:06;;;;;;;2.03;1.80;;;21.10;57.70;;;;;;5132910;27;20176;-68
2024/01/06 03:05:31;;;;;;;2.20;1.97;;;21.10;57.70;;;;;;5132467;28;20171;-68
2024/01/06 03:07:57;;;;;;;2.40;2.00;;;21.10;57.70;;;;;;5132909;28;20202;-69
2024/01/06 03:10:22;;;;;;;2.53;2.03;;;21.10;57.80;;;;;;5132703;28;20555;-69
2024/01/06 03:12:48;;;;;;;2.27;1.80;;;21.10;57.70;;;;;;5132856;27;20240;-68
2024/01/06 03:15:14;;;;;;;2.20;2.00;;;21.10;57.70;;;;;;5132844;28;20211;-69
2024/01/06 03:17:39;;;;;;;2.57;1.77;;;21.10;57.70;;;;;;5132074;27;20649;-69
2024/01/06 03:20:07;;;;;;;3.07;2.50;;;21.10;57.70;;;;;;5132544;28;20210;-69
2024/01/06 03:22:32;;;;;;;2.77;2.20;;;21.10;57.70;;;;;;5131353;27;20169;-68
2024/01/06 03:24:58;;;;;;;2.63;1.73;;;21.10;57.70;;;;;;5113943;28;20442;-69
2024/01/06 03:27:24;;;;;;;2.40;1.93;;;21.10;57.70;;;;;;5132497;28;20650;-68
2024/01/06 03:29:50;;;;;;;3.20;1.93;;;21.10;57.70;;;;;;5132629;28;20168;-68
2024/01/06 03:32:15;;;;;;;2.00;1.80;;;21.10;57.70;;;;;;5132465;28;20413;-69
2024/01/06 03:34:41;;;;;;;2.20;1.83;;;21.10;57.70;;;;;;5151354;27;20180;-69
2024/01/06 03:37:07;;;;;;;2.23;2.03;;;21.10;57.70;;;;;;5153197;27;20175;-68
2024/01/06 03:39:32;;;;;;;2.50;2.27;;;21.10;57.70;;;;;;5153040;27;20195;-69
2024/01/06 03:41:58;;;;;;;2.50;2.27;;;21.10;57.70;;;;;;5153009;27;20237;-69
2024/01/06 03:44:23;;;;;;;2.77;2.20;;;21.10;57.70;;;;;;5153298;27;20213;-69
2024/01/06 03:46:49;;;;;;;2.30;1.77;;;21.10;57.70;;;;;;5152797;27;20278;-69
2024/01/06 03:49:18;;;;;;;3.13;2.47;;;21.10;57.70;;;;;;5152790;27;20211;-68
2024/01/06 03:51:43;;;;;;;2.10;1.90;;;21.10;57.80;;;;;;5153192;27;20229;-69
2024/01/06 03:54:09;;;;;;;2.73;2.13;;;21.10;57.80;;;;;;5152685;27;20417;-68
2024/01/06 03:56:35;;;;;;;2.47;1.80;;;21.10;57.70;;;;;;5156945;27;20211;-69
2024/01/06 03:59:00;;;;;;;2.30;2.00;;;21.10;57.80;;;;;;5138223;27;20200;-69
2024/01/06 04:01:26;;;;;;;2.13;1.90;;;21.10;57.70;;;;;;5156706;27;20203;-68
2024/01/06 04:03:51;;;;;;;2.40;2.20;;;21.10;57.80;;;;;;5156002;27;20255;-66
2024/01/06 04:06:17;;;;;;;2.53;2.10;;;21.10;57.80;;;;;;5137633;27;20593;-69
2024/01/06 04:08:42;;;;;;;1.77;1.67;;;21.00;57.70;;;;;;5155793;27;20479;-68
2024/01/06 04:11:08;;;;;;;2.30;2.00;;;21.10;57.80;;;;;;5155936;27;20186;-69
2024/01/06 04:13:33;;;;;;;2.00;1.80;;;21.00;57.70;;;;;;5142700;27;20734;-68
2024/01/06 04:15:59;;;;;;;2.13;1.70;;;21.10;57.80;;;;;;5135010;27;20211;-69
2024/01/06 04:18:25;;;;;;;2.10;1.80;;;21.00;57.70;;;;;;5135408;27;20211;-69
2024/01/06 04:20:50;;;;;;;2.40;2.20;;;21.10;57.80;;;;;;5135076;27;20243;-68
2024/01/06 04:23:16;;;;;;;2.80;2.30;;;21.00;57.70;;;;;;5135263;27;20211;-69
2024/01/06 04:25:41;;;;;;;2.10;1.80;;;21.00;57.70;;;;;;5135126;27;20179;-68
2024/01/06 04:28:07;;;;;;;2.73;2.00;;;21.00;57.70;;;;;;5134975;27;20206;-67
2024/01/06 04:30:32;;;;;;;2.43;2.23;;;21.00;57.70;;;;;;5134667;27;20176;-68
2024/01/06 04:32:58;;;;;;;2.50;1.93;;;21.00;57.70;;;;;;5134779;27;20272;-68
2024/01/06 04:35:25;;;;;;;2.80;2.10;;;21.00;57.70;;;;;;5134757;27;20176;-69
2024/01/06 04:37:50;;;;;;;2.50;1.93;;;21.00;57.80;;;;;;5134774;27;20207;-68
2024/01/06 04:40:16;;;;;;;2.70;2.20;;;21.00;57.70;;;;;;5134758;27;20761;-69
2024/01/06 04:42:42;;;;;;;2.90;2.00;;;21.00;57.70;;;;;;5134747;27;20172;-69
2024/01/06 04:45:08;;;;;;;2.10;1.90;;;21.00;57.70;;;;;;5134809;27;20410;-68
2024/01/06 04:47:34;;;;;;;2.60;2.07;;;21.00;57.70;;;;;;5115951;27;20188;-69
2024/01/06 04:49:59;;;;;;;3.07;2.30;;;21.00;57.70;;;;;;5135136;27;20860;-69
2024/01/06 04:52:25;;;;;;;2.30;1.83;;;21.00;57.70;;;;;;5136147;27;20263;-68
2024/01/06 04:54:50;;;;;;;2.20;1.87;;;21.00;57.70;;;;;;5155822;27;20175;-69
2024/01/06 04:57:16;;;;;;;2.43;2.00;;;21.00;57.70;;;;;;5154713;27;20172;-68
2024/01/06 04:59:42;;;;;;;2.70;1.77;;;21.00;57.70;;;;;;5155110;27;20187;-68
2024/01/06 05:02:07;;;;;;;2.10;1.70;;;21.00;57.70;;;;;;5154497;27;20199;-68
2024/01/06 05:04:33;;;;;;;2.73;1.80;;;21.00;57.70;;;;;;5134067;27;20184;-69
2024/01/06 05:06:59;;;;;;;2.63;2.20;;;21.00;57.70;;;;;;5133473;27;20173;-68
2024/01/06 05:09:27;;;;;;;2.13;1.70;;;21.00;57.70;;;;;;5134203;27;20613;-68
2024/01/06 05:11:53;;;;;;;2.37;1.80;;;21.00;57.70;;;;;;5134333;27;20772;-68
2024/01/06 05:14:18;;;;;;;2.90;2.20;;;21.00;57.80;;;;;;5134175;27;20559;-68
2024/01/06 05:16:44;;;;;;;2.73;1.90;;;21.00;57.70;;;;;;5134060;27;20202;-69
2024/01/06 05:19:09;;;;;;;1.80;1.60;;;21.00;57.70;;;;;;5134011;27;20192;-69
2024/01/06 05:21:35;;;;;;;2.50;1.90;;;20.90;57.70;;;;;;5134126;27;20675;-69
2024/01/06 05:24:01;;;;;;;2.60;1.93;;;21.00;57.70;;;;;;5133954;27;20172;-68
2024/01/06 05:26:26;;;;;;;2.83;2.10;;;21.00;57.70;;;;;;5134222;27;20169;-68
2024/01/06 05:28:52;;;;;;;2.40;1.87;;;21.00;57.70;;;;;;5133997;27;20292;-69
2024/01/06 05:31:18;;;;;;;2.37;1.83;;;20.90;57.70;;;;;;5133930;27;20670;-69
2024/01/06 05:33:43;;;;;;;1.60;1.50;;;20.90;57.70;;;;;;5133882;27;20195;-68
2024/01/06 05:36:09;;;;;;;2.27;1.63;;;21.00;57.70;;;;;;5133629;27;20180;-69
2024/01/06 05:38:36;;;;;;;2.17;1.93;;;21.00;57.70;;;;;;5133558;27;20635;-69
2024/01/06 05:41:02;;;;;;;2.97;2.10;;;20.90;57.70;;;;;;5133820;27;20203;-68
2024/01/06 05:43:28;;;;;;;2.70;1.90;;;20.90;57.70;;;;;;5133397;27;20904;-67
2024/01/06 05:45:53;;;;;;;2.50;1.90;;;20.90;57.70;;;;;;5133616;27;20204;-69
2024/01/06 05:48:19;;;;;;;2.03;1.70;;;20.90;57.70;;;;;;5136336;27;20210;-68
2024/01/06 05:50:45;;;;;;;2.20;1.67;;;20.90;57.70;;;;;;5154207;27;20179;-68
2024/01/06 05:53:10;;;;;;;2.13;1.70;;;20.90;57.70;;;;;;5153697;27;20171;-67
2024/01/06 05:55:36;;;;;;;1.90;1.60;;;20.90;57.70;;;;;;5154106;27;20183;-69
2024/01/06 05:58:02;;;;;;;2.67;1.77;;;20.90;57.70;;;;;;5154007;27;20213;-69
2024/01/06 06:00:28;;;;;;;2.13;1.93;;;20.90;57.70;;;;;;5153910;27;20202;-68
2024/01/06 06:02:53;;;;;;;2.13;1.90;;;20.90;57.70;;;;;;5153009;27;20250;-69
2024/01/06 06:05:20;;;;;;;1.80;1.70;;;20.90;57.70;;;;;;5143394;27;20168;-69
2024/01/06 06:07:46;;;;;;;2.23;2.03;;;20.90;57.70;;;;;;5133128;27;20256;-68
2024/01/06 06:10:11;;;;;;;1.97;1.70;;;20.90;57.70;;;;;;5133029;27;20508;-68
2024/01/06 06:12:38;;;;;;;2.00;1.50;;;20.90;57.70;;;;;;5132823;27;20178;-68
2024/01/06 06:15:04;;;;;;;2.50;1.70;;;20.90;57.70;;;;;;5132936;27;20180;-69
2024/01/06 06:17:31;;;;;;;2.60;1.90;;;20.90;57.70;;;;;;5132565;27;20974;-69
2024/01/06 06:19:57;;;;;;;2.13;1.67;;;20.90;57.70;;;;;;5132843;27;20504;-69
2024/01/06 06:22:23;;;;;;;1.77;1.67;;;20.90;57.70;;;;;;5132728;27;20410;-68
2024/01/06 06:24:48;;;;;;;2.10;1.73;;;20.90;57.70;;;;;;5132792;27;20398;-68
2024/01/06 06:27:14;;;;;;;2.50;2.10;;;20.90;57.70;;;;;;5132768;27;20421;-68
2024/01/06 06:29:40;;;;;;;2.30;1.83;;;20.90;57.70;;;;;;5132869;27;20195;-69
2024/01/06 06:32:05;;;;;;;2.77;1.90;;;20.90;57.70;;;;;;5133931;27;20184;-69
2024/01/06 06:34:31;;;;;;;2.33;1.83;;;20.90;57.70;;;;;;5133077;27;20676;-68
2024/01/06 06:36:56;;;;;;;3.43;2.10;;;20.90;57.70;;;;;;5132461;27;20172;-69
2024/01/06 06:39:22;;;;;;;2.93;2.20;;;20.90;57.70;;;;;;5133086;27;20588;-69
2024/01/06 06:41:48;;;;;;;2.20;1.70;;;20.90;57.70;;;;;;5114062;28;20240;-69
2024/01/06 06:44:14;;;;;;;1.97;1.40;;;20.90;57.70;;;;;;5133108;27;20607;-68
2024/01/06 06:46:39;;;;;;;1.80;1.30;;;20.90;57.70;;;;;;5132962;27;20198;-69
2024/01/06 06:49:05;;;;;;;2.20;1.97;;;20.90;57.60;;;;;;5132584;27;20568;-68
2024/01/06 06:51:30;;;;;;;2.23;1.80;;;20.90;57.60;;;;;;5132573;28;20214;-68
2024/01/06 06:53:56;;;;;;;2.33;2.00;;;21.00;57.70;;;;;;5144369;27;20183;-69
2024/01/06 06:56:22;;;;;;;1.97;1.70;;;20.90;57.60;;;;;;5153418;27;20167;-69
2024/01/06 06:58:48;;;;;;;2.13;1.63;;;21.00;57.70;;;;;;5153180;27;20187;-69
2024/01/06 07:01:17;;;;;;;2.10;1.73;;;21.00;57.70;;;;;;5145594;27;20208;-69
2024/01/06 07:03:42;;;;;;;1.73;1.60;;;21.00;57.70;;;;;;5152092;27;20180;-68
2024/01/06 07:06:08;;;;;;;2.20;1.87;;;21.10;57.80;;;;;;5153309;27;20416;-68
2024/01/06 07:08:33;;;;;;;2.30;2.10;;;21.10;57.70;;;;;;5134757;27;20197;-68
2024/01/06 07:11:00;;;;;;;2.67;1.90;;;21.10;57.70;;;;;;5152873;27;20220;-68
2024/01/06 07:13:26;;;;;;;2.57;1.93;;;21.10;57.70;;;;;;5136143;27;20188;-68
2024/01/06 07:15:52;;;;;;;1.90;1.70;;;21.10;57.70;;;;;;5132664;28;20433;-69
2024/01/06 07:18:19;;;;;;;2.13;1.43;;;21.20;57.70;;;;;;5132535;28;20437;-68
2024/01/06 07:20:44;;;;;;;2.27;2.07;;;21.20;57.70;;;;;;5132550;28;20238;-69
2024/01/06 07:23:10;;;;;;;2.70;2.13;;;21.20;57.60;;;;;;5132231;27;20441;-69
2024/01/06 07:25:35;;;;;;;2.37;2.17;;;21.20;57.60;;;;;;5132670;28;20173;-69
2024/01/06 07:28:02;;;;;;;1.70;1.60;;;21.20;57.60;;;;;;5132543;27;20196;-68
2024/01/06 07:30:27;;;;;;;2.13;1.70;;;21.30;57.60;;;;;;5134647;27;20646;-69
2024/01/06 07:32:53;;;;;;;2.33;1.37;;;21.30;57.60;;;;;;5157245;27;20429;-69
2024/01/06 07:35:18;;;;;;;1.90;1.70;;;21.30;57.50;;;;;;5157198;27;20721;-69
2024/01/06 07:37:44;;;;;;;1.77;1.60;;;21.30;57.50;;;;;;5157430;27;20203;-68
2024/01/06 07:40:10;;;;;;;2.67;1.40;;;21.30;57.50;;;;;;5157557;27;20216;-69
2024/01/06 07:42:36;;;;;;;2.40;1.70;;;21.30;57.50;;;;;;5137082;27;20204;-69
2024/01/06 07:45:02;;;;;;;1.63;1.30;;;21.30;57.50;;;;;;5135962;27;21271;-69
2024/01/06 07:47:27;;;;;;;1.90;1.60;;;21.30;57.50;;;;;;5146211;27;20170;-68
2024/01/06 07:49:54;;;;;;;2.10;1.90;;;21.30;57.50;;;;;;5155135;27;20413;-69
2024/01/06 07:52:19;;;;;;;2.10;1.60;;;21.40;57.60;;;;;;5157032;27;20216;-68
2024/01/06 07:54:45;;;;;;;2.00;1.70;;;21.40;57.50;;;;;;5144167;27;20418;-69
2024/01/06 07:57:11;;;;;;;2.17;1.77;;;21.40;57.50;;;;;;5156544;27;20269;-69
2024/01/06 07:59:37;;;;;;;1.60;1.40;;;21.40;57.50;;;;;;5150880;27;20184;-69
2024/01/06 08:02:03;;;;;;;1.70;1.50;;;21.40;57.50;;;;;;5116965;27;21002;-68
2024/01/06 08:04:28;;;;;;;1.93;1.60;;;21.40;58.10;;;;;;5135896;27;20191;-68
2024/01/06 08:06:54;;;;;;;1.73;1.23;;;21.40;57.50;;;;;;5121466;27;20177;-69
2024/01/06 08:09:20;;;;;;;1.93;1.60;;;21.40;57.50;;;;;;5156232;27;20194;-69
2024/01/06 08:11:48;;;;;;;1.60;1.50;;;21.40;57.50;;;;;;5147160;27;20510;-69
2024/01/06 08:14:13;;;;;;;1.60;1.40;;;21.40;57.50;;;;;;5135591;27;20971;-69
2024/01/06 08:16:39;;;;;;;2.23;1.30;;;21.40;57.50;;;;;;5140718;27;20478;-69
2024/01/06 08:19:04;;;;;;;2.20;1.70;;;21.40;57.50;;;;;;5156229;27;20203;-69
2024/01/06 08:21:30;;;;;;;1.80;1.40;;;21.50;57.50;;;;;;5147744;27;20192;-69
2024/01/06 08:23:56;;;;;;;1.93;1.37;;;21.50;57.50;;;;;;5135367;27;20247;-69
2024/01/06 08:26:21;;;;;;;1.90;1.70;;;21.50;57.60;;;;;;5116902;27;20192;-69
2024/01/06 08:28:47;;;;;;;1.57;1.43;;;21.50;57.50;;;;;;5135110;27;20719;-68
2024/01/06 08:31:13;;;;;;;1.53;1.43;;;21.50;57.50;;;;;;5116737;27;20470;-68
2024/01/06 08:33:38;;;;;;;2.37;1.87;;;21.50;57.50;;;;;;5135588;27;20172;-69
2024/01/06 08:36:05;;;;;;;1.97;1.50;;;21.50;57.50;;;;;;5135214;27;20631;-69
2024/01/06 08:38:30;;;;;;;1.50;1.40;;;21.50;57.50;;;;;;5135125;27;20198;-69
2024/01/06 08:40:56;;;;;;;2.27;1.80;;;21.50;57.50;;;;;;5134496;27;20457;-69
2024/01/06 08:43:21;;;;;;;1.60;1.37;;;21.50;57.50;;;;;;5134834;27;20753;-69
2024/01/06 08:45:47;;;;;;;1.43;1.33;;;21.50;57.50;;;;;;5135584;27;20203;-69
2024/01/06 08:48:14;;;;;;;2.07;1.40;;;21.50;57.50;;;;;;5134833;27;20203;-69
2024/01/06 08:50:40;;;;;;;2.03;1.17;;;21.50;57.50;;;;;;5116345;27;20424;-69
2024/01/06 08:53:06;;;;;;;1.33;1.20;;;21.50;57.50;;;;;;5135110;27;20406;-68
2024/01/06 08:55:31;;;;;;;1.70;1.40;;;21.50;57.50;;;;;;5134820;27;20176;-68
2024/01/06 08:57:57;;;;;;;1.67;1.33;;;21.50;57.50;;;;;;5134813;27;20643;-69
2024/01/06 09:00:22;;;;;;;1.50;1.40;;;21.50;57.50;;;;;;5134969;27;20212;-68
2024/01/06 09:02:49;;;;;;;1.97;1.77;;;21.50;57.50;;;;;;5134565;27;20514;-69
2024/01/06 09:05:14;;;;;;;1.60;1.20;;;21.50;57.50;;;;;;5134861;27;20172;-69
2024/01/06 09:07:40;;;;;;;1.73;1.43;;;21.50;57.50;;;;;;5123165;27;20491;-69
2024/01/06 09:10:06;;;;;;;1.50;1.30;;;21.50;57.50;;;;;;5154969;27;20199;-69
2024/01/06 09:12:32;;;;;;;1.83;1.37;;;21.50;57.60;;;;;;5138902;27;20230;-69
2024/01/06 09:14:57;;;;;;;1.90;1.40;;;21.60;57.70;;;;;;5134384;27;20410;-69
2024/01/06 09:17:23;;;;;;;2.00;1.60;;;21.60;57.70;;;;;;5133451;27;20188;-68
2024/01/06 09:19:48;;;;;;;1.77;1.67;;;21.50;57.60;;;;;;5133890;27;20203;-69
2024/01/06 09:22:14;;;;;;;1.93;1.73;;;21.50;57.60;;;;;;5133873;27;20219;-69
2024/01/06 09:24:40;;;;;;;2.03;1.50;;;21.50;57.60;;;;;;5134068;27;20678;-69
2024/01/06 09:27:06;;;;;;;2.50;1.77;;;21.50;57.60;;;;;;5133524;27;20172;-69
2024/01/06 09:29:31;;;;;;;1.90;1.70;;;21.50;57.60;;;;;;5133686;27;20750;-69
2024/01/06 09:31:57;;;;;;;1.60;1.40;;;21.50;57.60;;;;;;5133765;27;20169;-68
2024/01/06 09:34:23;;;;;;;1.43;1.10;;;21.50;57.60;;;;;;5133630;27;20180;-67
2024/01/06 09:36:48;;;;;;;1.70;1.43;;;21.50;57.60;;;;;;5133422;27;20305;-69
2024/01/06 09:39:14;;;;;;;1.77;1.63;;;21.50;57.70;;;;;;5133674;27;20200;-68
2024/01/06 09:41:39;;;;;;;1.30;1.20;;;21.50;57.70;;;;;;5114092;27;20680;-69
2024/01/06 09:44:05;;;;;;;1.70;1.20;;;21.50;57.70;;;;;;5135917;27;20199;-68
2024/01/06 09:46:31;;;;;;;1.87;1.27;;;21.50;57.70;;;;;;5133903;27;20168;-69
2024/01/06 09:48:58;;;;;;;1.80;1.20;;;21.50;57.70;;;;;;5133298;27;20200;-68
2024/01/06 09:51:26;;;;;;;1.60;1.40;;;21.50;57.70;;;;;;5133884;27;20413;-69
2024/01/06 09:54:00;;;;;;;2.23;1.70;;;21.50;57.70;;;;;;5133588;27;20407;-69
2024/01/06 09:56:28;;;;;;;1.50;1.37;;;21.50;57.70;;;;;;5140378;27;20416;-69
2024/01/06 09:58:55;;;;;;;1.60;1.37;;;21.50;57.70;;;;;;5138642;27;20430;-68
2024/01/06 10:01:21;;;;;;;1.90;1.53;;;21.50;57.80;;;;;;5134355;27;20854;-69
2024/01/06 10:03:47;;;;;;;1.90;1.30;;;21.50;57.70;;;;;;5133270;27;20521;-68
2024/01/06 10:06:16;;;;;;;1.40;1.30;;;21.50;57.70;;;;;;5146665;27;20183;-69
2024/01/06 10:08:49;;;;;;;1.60;1.50;;;21.50;57.80;;;;;;5153422;27;20437;-67
2024/01/06 10:11:15;;;;;;;1.30;1.10;;;21.60;57.80;;;;;;5154204;27;20446;-69
2024/01/06 10:13:40;;;;;;;1.60;1.30;;;21.50;57.70;;;;;;5136499;27;21012;-69
2024/01/06 10:16:07;;;;;;;2.00;1.43;;;21.60;57.80;;;;;;5138516;27;20232;-69
2024/01/06 10:18:35;;;;;;;1.80;1.53;;;21.60;57.80;;;;;;5154163;27;20970;-69
2024/01/06 10:21:04;;;;;;;1.80;1.50;;;21.60;57.80;;;;;;5154035;27;20456;-69
2024/01/06 10:23:32;;;;;;;1.60;1.50;;;21.60;57.90;;;;;;5141003;27;20943;-69
2024/01/06 10:25:58;;;;;;;2.07;1.40;;;21.60;57.90;;;;;;5143157;27;20409;-69
2024/01/06 10:28:25;;;;;;;1.73;1.30;;;21.60;57.90;;;;;;5140897;27;20437;-69
2024/01/06 10:30:55;;;;;;;1.30;1.07;;;21.60;57.90;;;;;;5150206;27;20417;-68
2024/01/06 10:33:22;;;;;;;1.80;1.53;;;21.60;57.90;;;;;;5150855;27;20417;-69
2024/01/06 10:35:49;;;;;;;1.57;1.27;;;21.60;57.90;;;;;;5135316;27;20424;-69
2024/01/06 10:38:18;;;;;;;1.40;1.20;;;21.50;57.80;;;;;;5145781;27;20434;-69
2024/01/06 10:41:00;;;;;;;1.40;1.20;;;21.50;57.80;;;;;;5140905;27;20456;-68
2024/01/06 10:43:30;;;;;;;1.90;1.70;;;21.60;57.90;;;;;;5153601;27;20405;-68
2024/01/06 10:45:57;;;;;;;1.47;1.20;;;21.50;57.80;;;;;;5134365;27;20784;-69
2024/01/06 10:48:25;;;;;;;1.67;1.43;;;21.50;57.80;;;;;;5152986;27;20598;-68
2024/01/06 10:50:53;;;;;;;1.03;0.93;;;21.50;57.80;;;;;;5150488;27;20431;-69
2024/01/06 10:53:20;;;;;;;1.70;1.50;;;21.60;58.00;;;;;;5153584;27;20787;-69
2024/01/06 10:55:48;;;;;;;1.43;1.30;;;21.50;57.80;;;;;;5153755;27;20416;-69
2024/01/06 10:58:16;;;;;;;1.50;1.20;;;21.50;57.80;;;;;;5153045;27;20440;-69
2024/01/06 11:00:41;;;;;;;2.07;1.40;;;21.50;57.70;;;;;;5134946;27;20457;-69
2024/01/06 11:03:09;;;;;;;2.00;1.43;;;21.60;57.80;;;;;;5153746;27;20463;-69
2024/01/06 11:05:36;;;;;;;1.30;1.20;;;21.60;57.70;;;;;;5156227;27;20176;-69
2024/01/06 11:08:03;;;;;;;1.40;1.00;;;21.60;57.70;;;;;;5157648;27;20424;-69
2024/01/06 11:10:30;;;;;;;1.40;1.17;;;21.60;57.70;;;;;;5157927;27;20512;-69
2024/01/06 11:13:13;;;;;;;2.10;1.90;;;21.60;57.70;;;;;;5158276;27;20416;-69
2024/01/06 11:15:40;;;;;;;1.20;1.10;;;21.60;57.70;;;;;;5157473;27;20396;-69
2024/01/06 11:18:06;;;;;;;1.40;1.10;;;21.60;57.70;;;;;;5157950;27;20473;-68
2024/01/06 11:20:31;;;;;;;1.40;1.30;;;21.60;57.70;;;;;;5158235;27;21001;-68
2024/01/06 11:23:20;;;;;;;1.60;1.30;;;21.60;57.70;;;;;;5157926;27;20198;-68
2024/01/06 11:25:46;;;;;;;1.83;1.30;;;21.60;57.70;;;;;;5139736;27;20160;-68
2024/01/06 11:28:12;;;;;;;1.50;1.30;;;21.70;57.80;;;;;;5157829;27;20939;-68
2024/01/06 11:30:38;;;;;;;1.50;1.20;;;21.60;57.70;;;;;;5158107;27;20179;-68
2024/01/06 11:33:04;;;;;;;1.33;1.13;;;21.70;57.80;;;;;;5157538;27;20408;-67
2024/01/06 11:35:30;;;;;;;1.97;1.40;;;21.60;57.70;;;;;;5157550;27;20444;-68
2024/01/06 11:38:00;;;;;;;1.67;1.37;;;21.70;57.80;;;;;;5157123;27;20966;-67
2024/01/06 11:40:32;;;;;;;1.53;1.20;;;21.70;57.80;;;;;;5157333;27;20203;-68
2024/01/06 11:43:06;;;;;;;1.47;1.37;;;21.70;57.80;;;;;;5157107;27;20392;-68
2024/01/06 11:45:36;;;;;;;1.60;1.50;;;21.70;57.80;;;;;;5156935;27;20499;-68
2024/01/06 11:48:07;;;;;;;1.10;0.90;;;21.70;57.70;;;;;;5156999;27;20886;-68
2024/01/06 11:50:35;;;;;;;1.40;1.30;;;21.70;57.70;;;;;;5157164;27;20393;-68
2024/01/06 11:53:01;;;;;;;1.67;1.50;;;21.70;57.70;;;;;;5157159;27;20821;-68
2024/01/06 11:55:34;;;;;;;1.47;1.17;;;21.70;57.70;;;;;;5157234;27;20436;-68
2024/01/06 11:58:03;;;;;;;1.90;1.50;;;21.70;57.70;;;;;;5157205;27;20437;-68
2024/01/06 12:00:30;;;;;;;1.70;1.60;;;21.70;57.70;;;;;;5156847;27;20513;-68
2024/01/06 12:02:57;;;;;;;1.30;1.10;;;21.70;57.70;;;;;;5157079;27;20937;-68
2024/01/06 12:05:24;;;;;;;1.40;1.20;;;21.70;57.70;;;;;;5156812;27;20400;-69
2024/01/06 12:07:58;;;;;;;1.80;1.27;;;21.70;57.70;;;;;;5156749;27;20432;-68
2024/01/06 12:10:25;;;;;;;1.27;1.10;;;21.70;57.80;;;;;;5157070;27;20397;-68
2024/01/06 12:13:02;;;;;;;1.63;1.23;;;21.70;57.80;;;;;;5156914;27;20497;-68
2024/01/06 12:15:29;;;;;;;2.50;1.50;;;21.70;57.80;;;;;;5156738;27;20404;-67
2024/01/06 12:17:55;;;;;;;1.60;1.30;;;21.70;57.90;;;;;;5137921;27;20946;-68
2024/01/06 12:20:24;;;;;;;1.63;1.33;;;21.70;57.90;;;;;;5156803;27;20465;-68
2024/01/06 12:22:54;;;;;;;1.33;1.23;;;21.70;57.90;;;;;;5156760;27;20180;-68
2024/01/06 12:25:24;;;;;;;1.60;1.40;;;21.70;57.90;;;;;;5137902;27;20409;-68
2024/01/06 12:27:50;;;;;;;2.80;1.70;;;21.70;57.90;;;;;;5156391;27;20519;-68
2024/01/06 12:30:18;;;;;;;1.50;1.30;;;21.70;57.90;;;;;;5156681;27;20473;-68
2024/01/06 12:32:45;;;;;;;1.47;1.20;;;21.70;57.90;;;;;;5156664;27;20185;-68
2024/01/06 12:35:11;;;;;;;1.60;1.30;;;21.70;57.90;;;;;;5156275;27;21045;-68
2024/01/06 12:37:38;;;;;;;1.83;1.30;;;21.70;57.90;;;;;;5156979;27;20401;-68
2024/01/06 12:40:04;;;;;;;2.33;1.60;;;21.70;57.90;;;;;;5157347;27;20397;-68
2024/01/06 12:42:30;;;;;;;1.60;1.40;;;21.70;57.90;;;;;;5158087;27;20405;-68